PWSweather.com
Personal Weather Stations
Station Observations
TENMILE2
Watts Bar Lake, Ten Mile, TN 37880

Watts Bar LakeTen Mile, TN 37880

Lat: 35.686, Lon: -84.7068

Elevation: 767

Station Type: Davis VP2

http://www.wattsbarweather.net

High Low Average
Temperature 62.6°F17.0°C 39.3°F4.1°C 50.6°F10.3°C
Dew Point 37.7°F3.2°C 22.5°F-5.3°C 32.4°F0.2°C
Winds 5.6 mph 9.0 kmh Calm Calm 1.0 mph SSW1.6 kmh SSW
Wind Gusts 18.8 mph30.3 kmh -- 4.0 mph6.4 kmh
Humidity 77% 23% 53%
Pressure 30.14 in1020.7 mb 30.00 in1015.9 mb -
Precipitation 0.00 in0.0 mm - -
Hour Temp Dew Point Humidity Winds Wind Gusts Pressure Precip Precip Rate Daily Precip Total
12:04 AM 48.1°F8.9°C 35.4°F1.9°C 61% 1.3 mph W2.1 kmh W 4.0 mph6.4 kmh 29.99 in1015.6 mb 0.00 in0.0 mm 0.00 in0.0 mm 0.00 in0.0 mm
12:09 AM 48.2°F9.0°C 35.0°F1.7°C 60% 2.2 mph WSW3.5 kmh WSW 3.8 mph6.1 kmh 29.99 in1015.6 mb 0.00 in0.0 mm 0.00 in0.0 mm 0.00 in0.0 mm
12:14 AM 48.3°F9.1°C 35.6°F2.0°C 61% 1.9 mph SW3.1 kmh SW 3.8 mph6.1 kmh 29.99 in1015.6 mb 0.00 in0.0 mm 0.00 in0.0 mm 0.00 in0.0 mm
12:19 AM 48.2°F9.0°C 35.5°F1.9°C 61% 1.3 mph WNW2.1 kmh WNW 3.8 mph6.1 kmh 29.99 in1015.6 mb 0.00 in0.0 mm 0.00 in0.0 mm 0.00 in0.0 mm
12:24 AM 47.9°F8.8°C 35.2°F1.8°C 61% 1.7 mph WSW2.7 kmh WSW 3.0 mph4.8 kmh 30.00 in1015.9 mb 0.00 in0.0 mm 0.00 in0.0 mm 0.00 in0.0 mm
12:29 AM 47.8°F8.8°C 35.5°F1.9°C 62% 1.3 mph NNE2.1 kmh NNE 3.0 mph4.8 kmh 30.00 in1015.9 mb 0.00 in0.0 mm 0.00 in0.0 mm 0.00 in0.0 mm
12:34 AM 47.8°F8.8°C 35.5°F1.9°C 62% 1.3 mph WSW2.1 kmh WSW 3.8 mph6.1 kmh 30.00 in1015.9 mb 0.00 in0.0 mm 0.00 in0.0 mm 0.00 in0.0 mm
12:39 AM 47.6°F8.7°C 35.2°F1.8°C 62% Calm Calm 3.8 mph6.1 kmh 30.00 in1015.9 mb 0.00 in0.0 mm 0.00 in0.0 mm 0.00 in0.0 mm
12:44 AM 47.3°F8.5°C 35.3°F1.8°C 63% Calm Calm 3.8 mph6.1 kmh 30.00 in1015.9 mb 0.00 in0.0 mm 0.00 in0.0 mm 0.00 in0.0 mm
12:49 AM 47.1°F8.4°C 35.6°F2.0°C 64% 1.7 mph SW2.7 kmh SW 3.8 mph6.1 kmh 30.00 in1015.9 mb 0.00 in0.0 mm 0.00 in0.0 mm 0.00 in0.0 mm
12:54 AM 47.0°F8.3°C 35.2°F1.8°C 63% 1.3 mph WSW2.1 kmh WSW 3.8 mph6.1 kmh 30.00 in1015.9 mb 0.00 in0.0 mm 0.00 in0.0 mm 0.00 in0.0 mm
12:59 AM 47.2°F8.4°C 34.9°F1.6°C 62% 1.6 mph SW2.6 kmh SW 3.8 mph6.1 kmh 30.00 in1015.9 mb 0.00 in0.0 mm 0.00 in0.0 mm 0.00 in0.0 mm
01:04 AM 47.1°F8.4°C 34.8°F1.6°C 62% 1.3 mph WSW2.1 kmh WSW 3.8 mph6.1 kmh 30.00 in1015.9 mb 0.00 in0.0 mm 0.00 in0.0 mm 0.00 in0.0 mm
01:09 AM 47.0°F8.3°C 35.2°F1.8°C 63% 1.3 mph W2.1 kmh W 3.0 mph4.8 kmh 30.01 in1016.3 mb 0.00 in0.0 mm 0.00 in0.0 mm 0.00 in0.0 mm
01:14 AM 46.9°F8.3°C 35.5°F1.9°C 64% 2.2 mph NW3.5 kmh NW 3.8 mph6.1 kmh 30.01 in1016.3 mb 0.00 in0.0 mm 0.00 in0.0 mm 0.00 in0.0 mm
01:19 AM 46.7°F8.2°C 35.7°F2.1°C 65% 1.3 mph WSW2.1 kmh WSW 3.8 mph6.1 kmh 30.01 in1016.3 mb 0.00 in0.0 mm 0.00 in0.0 mm 0.00 in0.0 mm
01:25 AM 46.5°F8.1°C 35.1°F1.7°C 64% 1.3 mph W2.1 kmh W 3.0 mph4.8 kmh 30.01 in1016.3 mb 0.00 in0.0 mm 0.00 in0.0 mm 0.00 in0.0 mm
01:30 AM 46.5°F8.1°C 34.6°F1.4°C 63% 1.3 mph SW2.1 kmh SW 3.8 mph6.1 kmh 30.01 in1016.3 mb 0.00 in0.0 mm 0.00 in0.0 mm 0.00 in0.0 mm
01:35 AM 46.6°F8.1°C 35.2°F1.8°C 64% 1.9 mph WSW3.1 kmh WSW 3.8 mph6.1 kmh 30.01 in1016.3 mb 0.00 in0.0 mm 0.00 in0.0 mm 0.00 in0.0 mm
01:40 AM 46.8°F8.2°C 35.0°F1.7°C 63% 3.2 mph WSW5.1 kmh WSW 6.3 mph10.1 kmh 30.01 in1016.3 mb 0.00 in0.0 mm 0.00 in0.0 mm 0.00 in0.0 mm
01:45 AM 46.8°F8.2°C 35.4°F1.9°C 64% 1.3 mph WSW2.1 kmh WSW 6.3 mph10.1 kmh 30.01 in1016.3 mb 0.00 in0.0 mm 0.00 in0.0 mm 0.00 in0.0 mm
01:50 AM 46.7°F8.2°C 35.3°F1.8°C 64% 1.5 mph N2.4 kmh N 6.0 mph9.7 kmh 30.01 in1016.3 mb 0.00 in0.0 mm 0.00 in0.0 mm 0.00 in0.0 mm
01:55 AM 46.5°F8.1°C 35.1°F1.7°C 64% 1.3 mph N2.1 kmh N 6.0 mph9.7 kmh 30.01 in1016.3 mb 0.00 in0.0 mm 0.00 in0.0 mm 0.00 in0.0 mm
02:00 AM 46.4°F8.0°C 35.4°F1.9°C 65% 1.9 mph WSW3.1 kmh WSW 3.8 mph6.1 kmh 30.01 in1016.3 mb 0.00 in0.0 mm 0.00 in0.0 mm 0.00 in0.0 mm
02:05 AM 46.4°F8.0°C 35.0°F1.7°C 64% 1.3 mph W2.1 kmh W 3.8 mph6.1 kmh 30.01 in1016.3 mb 0.00 in0.0 mm 0.00 in0.0 mm 0.00 in0.0 mm
02:10 AM 46.4°F8.0°C 35.0°F1.7°C 64% 1.3 mph WSW2.1 kmh WSW 5.0 mph8.0 kmh 30.01 in1016.3 mb 0.00 in0.0 mm 0.00 in0.0 mm 0.00 in0.0 mm
02:15 AM 46.1°F7.8°C 35.0°F1.7°C 65% 1.3 mph SW2.1 kmh SW 5.0 mph8.0 kmh 30.01 in1016.3 mb 0.00 in0.0 mm 0.00 in0.0 mm 0.00 in0.0 mm
02:20 AM 46.0°F7.8°C 35.0°F1.7°C 65% 1.7 mph SW2.7 kmh SW 4.0 mph6.4 kmh 30.01 in1016.3 mb 0.00 in0.0 mm 0.00 in0.0 mm 0.00 in0.0 mm
02:25 AM 45.9°F7.7°C 34.9°F1.6°C 65% 1.3 mph WSW2.1 kmh WSW 4.0 mph6.4 kmh 30.01 in1016.3 mb 0.00 in0.0 mm 0.00 in0.0 mm 0.00 in0.0 mm
02:30 AM 45.9°F7.7°C 34.5°F1.4°C 64% 3.4 mph WSW5.5 kmh WSW 7.5 mph12.1 kmh 30.01 in1016.3 mb 0.00 in0.0 mm 0.00 in0.0 mm 0.00 in0.0 mm
02:35 AM 46.1°F7.8°C 34.7°F1.5°C 64% 1.3 mph W2.1 kmh W 7.5 mph12.1 kmh 30.01 in1016.3 mb 0.00 in0.0 mm 0.00 in0.0 mm 0.00 in0.0 mm
02:40 AM 45.9°F7.7°C 35.3°F1.8°C 66% 1.3 mph W2.1 kmh W 6.0 mph9.7 kmh 30.01 in1016.3 mb 0.00 in0.0 mm 0.00 in0.0 mm 0.00 in0.0 mm
02:45 AM 45.6°F7.6°C 34.6°F1.4°C 65% 1.3 mph W2.1 kmh W 6.0 mph9.7 kmh 30.01 in1016.3 mb 0.00 in0.0 mm 0.00 in0.0 mm 0.00 in0.0 mm
02:50 AM 45.6°F7.6°C 35.0°F1.7°C 66% 1.3 mph WSW2.1 kmh WSW 2.0 mph3.2 kmh 30.02 in1016.6 mb 0.00 in0.0 mm 0.00 in0.0 mm 0.00 in0.0 mm
02:55 AM 45.5°F7.5°C 34.9°F1.6°C 66% 1.4 mph SW2.3 kmh SW 2.5 mph4.0 kmh 30.01 in1016.3 mb 0.00 in0.0 mm 0.00 in0.0 mm 0.00 in0.0 mm
03:00 AM 45.5°F7.5°C 34.8°F1.6°C 66% 1.8 mph N2.9 kmh N 3.8 mph6.1 kmh 30.02 in1016.6 mb 0.00 in0.0 mm 0.00 in0.0 mm 0.00 in0.0 mm
03:05 AM 45.3°F7.4°C 34.7°F1.5°C 66% 1.3 mph W2.1 kmh W 3.8 mph6.1 kmh 30.02 in1016.6 mb 0.00 in0.0 mm 0.00 in0.0 mm 0.00 in0.0 mm
03:10 AM 45.1°F7.3°C 34.9°F1.6°C 67% 1.3 mph W2.1 kmh W 3.0 mph4.8 kmh 30.02 in1016.6 mb 0.00 in0.0 mm 0.00 in0.0 mm 0.00 in0.0 mm
03:15 AM 44.8°F7.1°C 34.6°F1.4°C 67% 2.3 mph NW3.7 kmh NW 5.0 mph8.0 kmh 30.01 in1016.3 mb 0.00 in0.0 mm 0.00 in0.0 mm 0.00 in0.0 mm
03:20 AM 44.8°F7.1°C 34.6°F1.4°C 67% 1.4 mph SW2.3 kmh SW 5.0 mph8.0 kmh 30.01 in1016.3 mb 0.00 in0.0 mm 0.00 in0.0 mm 0.00 in0.0 mm
03:25 AM 44.9°F7.2°C 34.7°F1.5°C 67% 1.3 mph W2.1 kmh W 4.0 mph6.4 kmh 30.01 in1016.3 mb 0.00 in0.0 mm 0.00 in0.0 mm 0.00 in0.0 mm
03:30 AM 44.7°F7.1°C 34.8°F1.6°C 68% Calm Calm 4.0 mph6.4 kmh 30.01 in1016.3 mb 0.00 in0.0 mm 0.00 in0.0 mm 0.00 in0.0 mm
03:35 AM 44.7°F7.1°C 34.5°F1.4°C 67% 1.6 mph SSW2.6 kmh SSW 3.8 mph6.1 kmh 30.01 in1016.3 mb 0.00 in0.0 mm 0.00 in0.0 mm 0.00 in0.0 mm
03:40 AM 44.5°F6.9°C 34.3°F1.3°C 67% 1.3 mph SE2.1 kmh SE 3.8 mph6.1 kmh 30.01 in1016.3 mb 0.00 in0.0 mm 0.00 in0.0 mm 0.00 in0.0 mm
03:45 AM 44.4°F6.9°C 35.0°F1.7°C 69% 1.6 mph W2.6 kmh W 3.8 mph6.1 kmh 30.01 in1016.3 mb 0.00 in0.0 mm 0.00 in0.0 mm 0.00 in0.0 mm
03:50 AM 44.1°F6.7°C 34.6°F1.4°C 69% 1.3 mph WSW2.1 kmh WSW 3.8 mph6.1 kmh 30.01 in1016.3 mb 0.00 in0.0 mm 0.00 in0.0 mm 0.00 in0.0 mm
03:55 AM 44.4°F6.9°C 34.1°F1.2°C 67% 1.6 mph W2.6 kmh W 5.0 mph8.0 kmh 30.01 in1016.3 mb 0.00 in0.0 mm 0.00 in0.0 mm 0.00 in0.0 mm
04:01 AM 44.6°F7.0°C 34.3°F1.3°C 67% 2.0 mph WSW3.2 kmh WSW 5.0 mph8.0 kmh 30.01 in1016.3 mb 0.00 in0.0 mm 0.00 in0.0 mm 0.00 in0.0 mm
04:06 AM 44.3°F6.8°C 34.8°F1.6°C 69% 1.3 mph WSW2.1 kmh WSW 4.0 mph6.4 kmh 30.01 in1016.3 mb 0.00 in0.0 mm 0.00 in0.0 mm 0.00 in0.0 mm
04:11 AM 43.9°F6.6°C 34.5°F1.4°C 69% 1.3 mph W2.1 kmh W 4.0 mph6.4 kmh 30.01 in1016.3 mb 0.00 in0.0 mm 0.00 in0.0 mm 0.00 in0.0 mm
04:16 AM 44.1°F6.7°C 34.3°F1.3°C 68% 1.6 mph SW2.6 kmh SW 3.0 mph4.8 kmh 30.01 in1016.3 mb 0.00 in0.0 mm 0.00 in0.0 mm 0.00 in0.0 mm
04:21 AM 44.0°F6.7°C 34.6°F1.4°C 69% 1.3 mph SW2.1 kmh SW 2.5 mph4.0 kmh 30.01 in1016.3 mb 0.00 in0.0 mm 0.00 in0.0 mm 0.00 in0.0 mm
04:26 AM 43.7°F6.5°C 34.6°F1.4°C 70% 1.3 mph W2.1 kmh W 2.0 mph3.2 kmh 30.01 in1016.3 mb 0.00 in0.0 mm 0.00 in0.0 mm 0.00 in0.0 mm
04:31 AM 43.6°F6.4°C 34.5°F1.4°C 70% 1.4 mph NE2.3 kmh NE 2.5 mph4.0 kmh 30.02 in1016.6 mb 0.00 in0.0 mm 0.00 in0.0 mm 0.00 in0.0 mm
04:36 AM 43.4°F6.3°C 34.6°F1.4°C 71% 1.3 mph W2.1 kmh W 2.5 mph4.0 kmh 30.02 in1016.6 mb 0.00 in0.0 mm 0.00 in0.0 mm 0.00 in0.0 mm
04:41 AM 43.4°F6.3°C 34.7°F1.5°C 71% Calm Calm 1.3 mph2.1 kmh 30.02 in1016.6 mb 0.00 in0.0 mm 0.00 in0.0 mm 0.00 in0.0 mm
04:46 AM 43.3°F6.3°C 34.6°F1.4°C 71% 1.3 mph WNW2.1 kmh WNW 1.3 mph2.1 kmh 30.02 in1016.6 mb 0.00 in0.0 mm 0.00 in0.0 mm 0.00 in0.0 mm
04:51 AM 43.1°F6.2°C 34.4°F1.3°C 71% 1.3 mph WNW2.1 kmh WNW 1.3 mph2.1 kmh 30.02 in1016.6 mb 0.00 in0.0 mm 0.00 in0.0 mm 0.00 in0.0 mm
04:56 AM 43.1°F6.2°C 34.8°F1.6°C 72% 1.3 mph SW2.1 kmh SW 1.3 mph2.1 kmh 30.02 in1016.6 mb 0.00 in0.0 mm 0.00 in0.0 mm 0.00 in0.0 mm
05:01 AM 43.1°F6.2°C 34.4°F1.3°C 71% 1.7 mph NW2.7 kmh NW 2.5 mph4.0 kmh 30.02 in1016.6 mb 0.00 in0.0 mm 0.00 in0.0 mm 0.00 in0.0 mm
05:06 AM 43.2°F6.2°C 34.4°F1.3°C 71% 1.3 mph SW2.1 kmh SW 2.5 mph4.0 kmh 30.01 in1016.3 mb 0.00 in0.0 mm 0.00 in0.0 mm 0.00 in0.0 mm
05:11 AM 43.3°F6.3°C 35.0°F1.7°C 72% 1.3 mph SW2.1 kmh SW 2.5 mph4.0 kmh 30.01 in1016.3 mb 0.00 in0.0 mm 0.00 in0.0 mm 0.00 in0.0 mm
05:16 AM 43.2°F6.2°C 34.9°F1.6°C 72% 1.3 mph NW2.1 kmh NW 2.5 mph4.0 kmh 30.02 in1016.6 mb 0.00 in0.0 mm 0.00 in0.0 mm 0.00 in0.0 mm
05:21 AM 42.8°F6.0°C 34.5°F1.4°C 72% 1.3 mph WNW2.1 kmh WNW 2.0 mph3.2 kmh 30.01 in1016.3 mb 0.00 in0.0 mm 0.00 in0.0 mm 0.00 in0.0 mm
05:26 AM 42.8°F6.0°C 34.8°F1.6°C 73% 1.9 mph SW3.1 kmh SW 5.0 mph8.0 kmh 30.01 in1016.3 mb 0.00 in0.0 mm 0.00 in0.0 mm 0.00 in0.0 mm
05:31 AM 43.2°F6.2°C 34.9°F1.6°C 72% 1.9 mph W3.1 kmh W 5.0 mph8.0 kmh 30.02 in1016.6 mb 0.00 in0.0 mm 0.00 in0.0 mm 0.00 in0.0 mm
05:36 AM 43.4°F6.3°C 35.1°F1.7°C 72% Calm Calm 5.0 mph8.0 kmh 30.02 in1016.6 mb 0.00 in0.0 mm 0.00 in0.0 mm 0.00 in0.0 mm
05:41 AM 43.2°F6.2°C 34.9°F1.6°C 72% 1.3 mph WSW2.1 kmh WSW 3.8 mph6.1 kmh 30.02 in1016.6 mb 0.00 in0.0 mm 0.00 in0.0 mm 0.00 in0.0 mm
05:46 AM 43.1°F6.2°C 34.8°F1.6°C 72% Calm Calm 3.0 mph4.8 kmh 30.02 in1016.6 mb 0.00 in0.0 mm 0.00 in0.0 mm 0.00 in0.0 mm
05:51 AM 43.1°F6.2°C 35.1°F1.7°C 73% Calm Calm 2.0 mph3.2 kmh 30.02 in1016.6 mb 0.00 in0.0 mm 0.00 in0.0 mm 0.00 in0.0 mm
05:56 AM 43.5°F6.4°C 34.8°F1.6°C 71% 2.3 mph SSE3.7 kmh SSE 6.3 mph10.1 kmh 30.02 in1016.6 mb 0.00 in0.0 mm 0.00 in0.0 mm 0.00 in0.0 mm
06:01 AM 43.6°F6.4°C 34.9°F1.6°C 71% 1.3 mph SW2.1 kmh SW 6.3 mph10.1 kmh 30.02 in1016.6 mb 0.00 in0.0 mm 0.00 in0.0 mm 0.00 in0.0 mm
06:06 AM 43.5°F6.4°C 34.8°F1.6°C 71% 1.8 mph NNW2.9 kmh NNW 5.0 mph8.0 kmh 30.03 in1016.9 mb 0.00 in0.0 mm 0.00 in0.0 mm 0.00 in0.0 mm
06:11 AM 43.4°F6.3°C 35.1°F1.7°C 72% 1.5 mph S2.4 kmh S 5.0 mph8.0 kmh 30.02 in1016.6 mb 0.00 in0.0 mm 0.00 in0.0 mm 0.00 in0.0 mm
06:16 AM 43.8°F6.6°C 34.7°F1.5°C 70% 1.3 mph W2.1 kmh W 5.0 mph8.0 kmh 30.02 in1016.6 mb 0.00 in0.0 mm 0.00 in0.0 mm 0.00 in0.0 mm
06:21 AM 43.7°F6.5°C 35.0°F1.7°C 71% 1.3 mph SE2.1 kmh SE 5.0 mph8.0 kmh 30.03 in1016.9 mb 0.00 in0.0 mm 0.00 in0.0 mm 0.00 in0.0 mm
06:26 AM 43.6°F6.4°C 34.5°F1.4°C 70% 1.3 mph W2.1 kmh W 4.0 mph6.4 kmh 30.03 in1016.9 mb 0.00 in0.0 mm 0.00 in0.0 mm 0.00 in0.0 mm
06:31 AM 43.5°F6.4°C 34.8°F1.6°C 71% 1.3 mph SW2.1 kmh SW 4.0 mph6.4 kmh 30.03 in1016.9 mb 0.00 in0.0 mm 0.00 in0.0 mm 0.00 in0.0 mm
06:36 AM 43.3°F6.3°C 34.6°F1.4°C 71% 1.6 mph SW2.6 kmh SW 2.5 mph4.0 kmh 30.03 in1016.9 mb 0.00 in0.0 mm 0.00 in0.0 mm 0.00 in0.0 mm
06:41 AM 43.4°F6.3°C 34.7°F1.5°C 71% 1.5 mph SSW2.4 kmh SSW 2.5 mph4.0 kmh 30.04 in1017.3 mb 0.00 in0.0 mm 0.00 in0.0 mm 0.00 in0.0 mm
06:46 AM 43.3°F6.3°C 34.6°F1.4°C 71% 1.3 mph W2.1 kmh W 6.3 mph10.1 kmh 30.04 in1017.3 mb 0.00 in0.0 mm 0.00 in0.0 mm 0.00 in0.0 mm
06:51 AM 43.3°F6.3°C 35.0°F1.7°C 72% 1.6 mph S2.6 kmh S 6.3 mph10.1 kmh 30.04 in1017.3 mb 0.00 in0.0 mm 0.00 in0.0 mm 0.00 in0.0 mm
06:56 AM 43.1°F6.2°C 34.8°F1.6°C 72% 1.3 mph W2.1 kmh W 5.0 mph8.0 kmh 30.04 in1017.3 mb 0.00 in0.0 mm 0.00 in0.0 mm 0.00 in0.0 mm
07:01 AM 42.8°F6.0°C 34.1°F1.2°C 71% 1.3 mph W2.1 kmh W 4.0 mph6.4 kmh 30.05 in1017.6 mb 0.00 in0.0 mm 0.00 in0.0 mm 0.00 in0.0 mm
07:06 AM 42.6°F5.9°C 34.6°F1.4°C 73% 1.4 mph W2.3 kmh W 4.0 mph6.4 kmh 30.05 in1017.6 mb 0.00 in0.0 mm 0.00 in0.0 mm 0.00 in0.0 mm
07:11 AM 42.8°F6.0°C 34.5°F1.4°C 72% 3.7 mph S6.0 kmh S 8.8 mph14.2 kmh 30.05 in1017.6 mb 0.00 in0.0 mm 0.00 in0.0 mm 0.00 in0.0 mm
07:16 AM 42.7°F5.9°C 34.4°F1.3°C 72% Calm Calm 8.8 mph14.2 kmh 30.05 in1017.6 mb 0.00 in0.0 mm 0.00 in0.0 mm 0.00 in0.0 mm
07:21 AM 42.5°F5.8°C 33.8°F1.0°C 71% Calm Calm 7.0 mph11.3 kmh 30.05 in1017.6 mb 0.00 in0.0 mm 0.00 in0.0 mm 0.00 in0.0 mm
07:26 AM 42.3°F5.7°C 34.3°F1.3°C 73% 1.3 mph WSW2.1 kmh WSW 7.0 mph11.3 kmh 30.06 in1017.9 mb 0.00 in0.0 mm 0.00 in0.0 mm 0.00 in0.0 mm
07:31 AM 42.0°F5.6°C 34.0°F1.1°C 73% 1.3 mph SSW2.1 kmh SSW 1.3 mph2.1 kmh 30.06 in1017.9 mb 0.00 in0.0 mm 0.00 in0.0 mm 0.00 in0.0 mm
07:36 AM 42.0°F5.6°C 34.0°F1.1°C 73% 1.3 mph ESE2.1 kmh ESE 1.3 mph2.1 kmh 30.06 in1017.9 mb 0.00 in0.0 mm 0.00 in0.0 mm 0.00 in0.0 mm
07:41 AM 42.2°F5.7°C 34.2°F1.2°C 73% 1.7 mph SSW2.7 kmh SSW 3.8 mph6.1 kmh 30.07 in1018.3 mb 0.00 in0.0 mm 0.00 in0.0 mm 0.00 in0.0 mm
07:46 AM 42.3°F5.7°C 34.3°F1.3°C 73% Calm Calm 3.8 mph6.1 kmh 30.07 in1018.3 mb 0.00 in0.0 mm 0.00 in0.0 mm 0.00 in0.0 mm
07:51 AM 42.2°F5.7°C 34.6°F1.4°C 74% 1.3 mph WSW2.1 kmh WSW 3.8 mph6.1 kmh 30.07 in1018.3 mb 0.00 in0.0 mm 0.00 in0.0 mm 0.00 in0.0 mm
07:56 AM 42.2°F5.7°C 34.6°F1.4°C 74% Calm Calm 7.5 mph12.1 kmh 30.07 in1018.3 mb 0.00 in0.0 mm 0.00 in0.0 mm 0.00 in0.0 mm
08:01 AM 42.1°F5.6°C 34.8°F1.6°C 75% Calm Calm 7.5 mph12.1 kmh 30.07 in1018.3 mb 0.00 in0.0 mm 0.00 in0.0 mm 0.00 in0.0 mm
08:06 AM 42.6°F5.9°C 35.0°F1.7°C 74% 1.3 mph WSW2.1 kmh WSW 6.0 mph9.7 kmh 30.07 in1018.3 mb 0.00 in0.0 mm 0.00 in0.0 mm 0.00 in0.0 mm
08:12 AM 43.2°F6.2°C 35.2°F1.8°C 73% 1.3 mph S2.1 kmh S 6.0 mph9.7 kmh 30.07 in1018.3 mb 0.00 in0.0 mm 0.00 in0.0 mm 0.00 in0.0 mm
08:17 AM 44.1°F6.7°C 35.7°F2.1°C 72% 2.0 mph SW3.2 kmh SW 3.8 mph6.1 kmh 30.08 in1018.6 mb 0.00 in0.0 mm 0.00 in0.0 mm 0.00 in0.0 mm
08:22 AM 44.8°F7.1°C 35.3°F1.8°C 69% 2.1 mph SE3.4 kmh SE 3.8 mph6.1 kmh 30.08 in1018.6 mb 0.00 in0.0 mm 0.00 in0.0 mm 0.00 in0.0 mm
08:27 AM 45.6°F7.6°C 35.7°F2.1°C 68% 1.3 mph SW2.1 kmh SW 3.0 mph4.8 kmh 30.08 in1018.6 mb 0.00 in0.0 mm 0.00 in0.0 mm 0.00 in0.0 mm
08:32 AM 46.5°F8.1°C 35.9°F2.2°C 66% 1.9 mph S3.1 kmh S 3.8 mph6.1 kmh 30.08 in1018.6 mb 0.00 in0.0 mm 0.00 in0.0 mm 0.00 in0.0 mm
08:37 AM 47.2°F8.4°C 36.1°F2.3°C 65% 1.6 mph S2.6 kmh S 3.8 mph6.1 kmh 30.09 in1019.0 mb 0.00 in0.0 mm 0.00 in0.0 mm 0.00 in0.0 mm
08:42 AM 47.7°F8.7°C 35.4°F1.9°C 62% 1.7 mph S2.7 kmh S 5.0 mph8.0 kmh 30.09 in1019.0 mb 0.00 in0.0 mm 0.00 in0.0 mm 0.00 in0.0 mm
08:47 AM 48.0°F8.9°C 35.7°F2.1°C 62% 2.2 mph SSE3.5 kmh SSE 5.0 mph8.0 kmh 30.09 in1019.0 mb 0.00 in0.0 mm 0.00 in0.0 mm 0.00 in0.0 mm
08:52 AM 48.3°F9.1°C 36.8°F2.7°C 64% 1.3 mph W2.1 kmh W 6.3 mph10.1 kmh 30.09 in1019.0 mb 0.00 in0.0 mm 0.00 in0.0 mm 0.00 in0.0 mm
08:57 AM 48.7°F9.3°C 35.9°F2.2°C 61% 2.2 mph S3.5 kmh S 6.3 mph10.1 kmh 30.09 in1019.0 mb 0.00 in0.0 mm 0.00 in0.0 mm 0.00 in0.0 mm
09:02 AM 48.7°F9.3°C 35.5°F1.9°C 60% 1.4 mph S2.3 kmh S 6.3 mph10.1 kmh 30.09 in1019.0 mb 0.00 in0.0 mm 0.00 in0.0 mm 0.00 in0.0 mm
09:07 AM 49.6°F9.8°C 37.2°F2.9°C 62% 1.3 mph SW2.1 kmh SW 5.0 mph8.0 kmh 30.09 in1019.0 mb 0.00 in0.0 mm 0.00 in0.0 mm 0.00 in0.0 mm
09:12 AM 49.7°F9.8°C 36.9°F2.7°C 61% 2.3 mph SW3.7 kmh SW 5.0 mph8.0 kmh 30.09 in1019.0 mb 0.00 in0.0 mm 0.00 in0.0 mm 0.00 in0.0 mm
09:17 AM 49.8°F9.9°C 36.1°F2.3°C 59% 1.9 mph SW3.1 kmh SW 6.3 mph10.1 kmh 30.09 in1019.0 mb 0.00 in0.0 mm 0.00 in0.0 mm 0.00 in0.0 mm
09:22 AM 50.0°F10.0°C 35.4°F1.9°C 57% 2.5 mph WSW4.0 kmh WSW 6.3 mph10.1 kmh 30.09 in1019.0 mb 0.00 in0.0 mm 0.00 in0.0 mm 0.00 in0.0 mm
09:27 AM 50.2°F10.1°C 36.5°F2.5°C 59% 4.1 mph N6.6 kmh N 7.5 mph12.1 kmh 30.09 in1019.0 mb 0.00 in0.0 mm 0.00 in0.0 mm 0.00 in0.0 mm
09:32 AM 50.3°F10.2°C 35.3°F1.8°C 56% 1.7 mph WSW2.7 kmh WSW 7.5 mph12.1 kmh 30.09 in1019.0 mb 0.00 in0.0 mm 0.00 in0.0 mm 0.00 in0.0 mm
09:37 AM 50.6°F10.3°C 36.4°F2.4°C 58% 1.7 mph NW2.7 kmh NW 6.3 mph10.1 kmh 30.09 in1019.0 mb 0.00 in0.0 mm 0.00 in0.0 mm 0.00 in0.0 mm
09:42 AM 51.2°F10.7°C 35.6°F2.0°C 55% 1.5 mph W2.4 kmh W 6.0 mph9.7 kmh 30.09 in1019.0 mb 0.00 in0.0 mm 0.00 in0.0 mm 0.00 in0.0 mm
09:47 AM 51.6°F10.9°C 36.4°F2.4°C 56% 2.2 mph SW3.5 kmh SW 4.0 mph6.4 kmh 30.09 in1019.0 mb 0.00 in0.0 mm 0.00 in0.0 mm 0.00 in0.0 mm
09:52 AM 51.5°F10.8°C 35.4°F1.9°C 54% 1.4 mph WSW2.3 kmh WSW 5.0 mph8.0 kmh 30.09 in1019.0 mb 0.00 in0.0 mm 0.00 in0.0 mm 0.00 in0.0 mm
09:57 AM 51.9°F11.1°C 36.3°F2.4°C 55% 1.4 mph WSW2.3 kmh WSW 5.0 mph8.0 kmh 30.09 in1019.0 mb 0.00 in0.0 mm 0.00 in0.0 mm 0.00 in0.0 mm
10:02 AM 52.4°F11.3°C 36.8°F2.7°C 55% 1.6 mph WSW2.6 kmh WSW 4.0 mph6.4 kmh 30.09 in1019.0 mb 0.00 in0.0 mm 0.00 in0.0 mm 0.00 in0.0 mm
10:07 AM 52.4°F11.3°C 37.7°F3.2°C 57% 2.5 mph SW4.0 kmh SW 5.0 mph8.0 kmh 30.09 in1019.0 mb 0.00 in0.0 mm 0.00 in0.0 mm 0.00 in0.0 mm
10:12 AM 52.5°F11.4°C 36.4°F2.4°C 54% 2.4 mph WSW3.9 kmh WSW 5.0 mph8.0 kmh 30.09 in1019.0 mb 0.00 in0.0 mm 0.00 in0.0 mm 0.00 in0.0 mm
10:17 AM 52.7°F11.5°C 34.6°F1.4°C 50% 1.9 mph SW3.1 kmh SW 6.3 mph10.1 kmh 30.09 in1019.0 mb 0.00 in0.0 mm 0.00 in0.0 mm 0.00 in0.0 mm
10:22 AM 53.0°F11.7°C 35.3°F1.8°C 51% 2.7 mph WSW4.3 kmh WSW 6.3 mph10.1 kmh 30.09 in1019.0 mb 0.00 in0.0 mm 0.00 in0.0 mm 0.00 in0.0 mm
10:27 AM 53.4°F11.9°C 34.7°F1.5°C 49% 3.1 mph WSW5.0 kmh WSW 6.3 mph10.1 kmh 30.09 in1019.0 mb 0.00 in0.0 mm 0.00 in0.0 mm 0.00 in0.0 mm
10:32 AM 54.0°F12.2°C 35.3°F1.8°C 49% 4.2 mph NNW6.8 kmh NNW 16.3 mph26.2 kmh 30.09 in1019.0 mb 0.00 in0.0 mm 0.00 in0.0 mm 0.00 in0.0 mm
10:37 AM 53.9°F12.2°C 35.7°F2.1°C 50% 1.7 mph SSW2.7 kmh SSW 16.3 mph26.2 kmh 30.09 in1019.0 mb 0.00 in0.0 mm 0.00 in0.0 mm 0.00 in0.0 mm
10:42 AM 54.1°F12.3°C 34.3°F1.3°C 47% 3.6 mph SW5.8 kmh SW 13.0 mph20.9 kmh 30.09 in1019.0 mb 0.00 in0.0 mm 0.00 in0.0 mm 0.00 in0.0 mm
10:47 AM 54.7°F12.6°C 36.9°F2.7°C 51% 1.4 mph WSW2.3 kmh WSW 12.0 mph19.3 kmh 30.09 in1019.0 mb 0.00 in0.0 mm 0.00 in0.0 mm 0.00 in0.0 mm
10:52 AM 55.0°F12.8°C 34.0°F1.1°C 45% 2.1 mph WSW3.4 kmh WSW 6.3 mph10.1 kmh 30.10 in1019.3 mb 0.00 in0.0 mm 0.00 in0.0 mm 0.00 in0.0 mm
10:57 AM 54.7°F12.6°C 33.2°F0.7°C 44% 3.2 mph SW5.1 kmh SW 7.5 mph12.1 kmh 30.10 in1019.3 mb 0.00 in0.0 mm 0.00 in0.0 mm 0.00 in0.0 mm
11:02 AM 54.4°F12.4°C 34.0°F1.1°C 46% 2.7 mph W4.3 kmh W 7.5 mph12.1 kmh 30.10 in1019.3 mb 0.00 in0.0 mm 0.00 in0.0 mm 0.00 in0.0 mm
11:07 AM 54.6°F12.6°C 32.5°F0.3°C 43% 3.4 mph SW5.5 kmh SW 7.5 mph12.1 kmh 30.09 in1019.0 mb 0.00 in0.0 mm 0.00 in0.0 mm 0.00 in0.0 mm
11:12 AM 54.6°F12.6°C 33.6°F0.9°C 45% 2.5 mph SW4.0 kmh SW 7.5 mph12.1 kmh 30.09 in1019.0 mb 0.00 in0.0 mm 0.00 in0.0 mm 0.00 in0.0 mm
11:17 AM 54.6°F12.6°C 34.7°F1.5°C 47% 2.4 mph WSW3.9 kmh WSW 6.3 mph10.1 kmh 30.09 in1019.0 mb 0.00 in0.0 mm 0.00 in0.0 mm 0.00 in0.0 mm
11:22 AM 54.5°F12.5°C 34.1°F1.2°C 46% 2.5 mph WSW4.0 kmh WSW 12.5 mph20.1 kmh 30.09 in1019.0 mb 0.00 in0.0 mm 0.00 in0.0 mm 0.00 in0.0 mm
11:27 AM 55.3°F12.9°C 34.9°F1.6°C 46% 2.2 mph SSW3.5 kmh SSW 12.5 mph20.1 kmh 30.09 in1019.0 mb 0.00 in0.0 mm 0.00 in0.0 mm 0.00 in0.0 mm
11:32 AM 55.8°F13.2°C 34.8°F1.6°C 45% 3.5 mph SW5.6 kmh SW 11.3 mph18.2 kmh 30.09 in1019.0 mb 0.00 in0.0 mm 0.00 in0.0 mm 0.00 in0.0 mm
11:37 AM 55.9°F13.3°C 33.0°F0.6°C 42% 2.5 mph W4.0 kmh W 11.0 mph17.7 kmh 30.08 in1018.6 mb 0.00 in0.0 mm 0.00 in0.0 mm 0.00 in0.0 mm
11:42 AM 56.0°F13.3°C 32.5°F0.3°C 41% 5.6 mph SSW9.0 kmh SSW 9.0 mph14.5 kmh 30.08 in1018.6 mb 0.00 in0.0 mm 0.00 in0.0 mm 0.00 in0.0 mm
11:47 AM 56.0°F13.3°C 34.3°F1.3°C 44% 2.2 mph WSW3.5 kmh WSW 8.8 mph14.2 kmh 30.08 in1018.6 mb 0.00 in0.0 mm 0.00 in0.0 mm 0.00 in0.0 mm
11:52 AM 56.7°F13.7°C 34.9°F1.6°C 44% 2.3 mph SW3.7 kmh SW 7.5 mph12.1 kmh 30.08 in1018.6 mb 0.00 in0.0 mm 0.00 in0.0 mm 0.00 in0.0 mm
11:57 AM 56.1°F13.4°C 33.2°F0.7°C 42% 2.3 mph WSW3.7 kmh WSW 7.0 mph11.3 kmh 30.08 in1018.6 mb 0.00 in0.0 mm 0.00 in0.0 mm 0.00 in0.0 mm
12:03 PM 56.5°F13.6°C 33.5°F0.8°C 42% 3.6 mph NW5.8 kmh NW 11.3 mph18.2 kmh 30.08 in1018.6 mb 0.00 in0.0 mm 0.00 in0.0 mm 0.00 in0.0 mm
12:07 PM 56.8°F13.8°C 31.9°F-0.1°C 39% 5.0 mph SW8.0 kmh SW 12.5 mph20.1 kmh 30.08 in1018.6 mb 0.00 in0.0 mm 0.00 in0.0 mm 0.00 in0.0 mm
12:13 PM 56.6°F13.7°C 32.4°F0.2°C 40% 2.6 mph SW4.2 kmh SW 12.5 mph20.1 kmh 30.08 in1018.6 mb 0.00 in0.0 mm 0.00 in0.0 mm 0.00 in0.0 mm
12:18 PM 56.5°F13.6°C 31.6°F-0.2°C 39% 3.4 mph WSW5.5 kmh WSW 16.3 mph26.2 kmh 30.08 in1018.6 mb 0.00 in0.0 mm 0.00 in0.0 mm 0.00 in0.0 mm
12:23 PM 56.5°F13.6°C 34.1°F1.2°C 43% 3.4 mph SW5.5 kmh SW 16.3 mph26.2 kmh 30.08 in1018.6 mb 0.00 in0.0 mm 0.00 in0.0 mm 0.00 in0.0 mm
12:28 PM 56.7°F13.7°C 32.0°F0.0°C 39% 2.5 mph SW4.0 kmh SW 12.0 mph19.3 kmh 30.07 in1018.3 mb 0.00 in0.0 mm 0.00 in0.0 mm 0.00 in0.0 mm
12:33 PM 57.1°F13.9°C 34.2°F1.2°C 42% 3.1 mph SW5.0 kmh SW 12.0 mph19.3 kmh 30.07 in1018.3 mb 0.00 in0.0 mm 0.00 in0.0 mm 0.00 in0.0 mm
12:38 PM 57.5°F14.2°C 31.2°F-0.4°C 37% 3.8 mph SW6.1 kmh SW 8.8 mph14.2 kmh 30.07 in1018.3 mb 0.00 in0.0 mm 0.00 in0.0 mm 0.00 in0.0 mm
12:43 PM 57.4°F14.1°C 33.7°F0.9°C 41% 1.6 mph SW2.6 kmh SW 16.3 mph26.2 kmh 30.07 in1018.3 mb 0.00 in0.0 mm 0.00 in0.0 mm 0.00 in0.0 mm
12:48 PM 57.7°F14.3°C 32.1°F0.1°C 38% 3.7 mph SW6.0 kmh SW 16.3 mph26.2 kmh 30.07 in1018.3 mb 0.00 in0.0 mm 0.00 in0.0 mm 0.00 in0.0 mm
12:53 PM 57.6°F14.2°C 32.6°F0.3°C 39% 2.4 mph WSW3.9 kmh WSW 12.0 mph19.3 kmh 30.06 in1017.9 mb 0.00 in0.0 mm 0.00 in0.0 mm 0.00 in0.0 mm
12:58 PM 58.1°F14.5°C 33.1°F0.6°C 39% 4.3 mph WSW6.9 kmh WSW 12.0 mph19.3 kmh 30.07 in1018.3 mb 0.00 in0.0 mm 0.00 in0.0 mm 0.00 in0.0 mm
01:03 PM 57.8°F14.3°C 33.5°F0.8°C 40% 4.0 mph WSW6.4 kmh WSW 12.5 mph20.1 kmh 30.07 in1018.3 mb 0.00 in0.0 mm 0.00 in0.0 mm 0.00 in0.0 mm
01:08 PM 57.7°F14.3°C 32.1°F0.1°C 38% 2.5 mph SW4.0 kmh SW 12.5 mph20.1 kmh 30.07 in1018.3 mb 0.00 in0.0 mm 0.00 in0.0 mm 0.00 in0.0 mm
01:13 PM 58.0°F14.4°C 33.6°F0.9°C 40% 2.8 mph WSW4.5 kmh WSW 10.0 mph16.1 kmh 30.07 in1018.3 mb 0.00 in0.0 mm 0.00 in0.0 mm 0.00 in0.0 mm
01:18 PM 58.1°F14.5°C 32.4°F0.2°C 38% 2.6 mph WSW4.2 kmh WSW 10.0 mph16.1 kmh 30.06 in1017.9 mb 0.00 in0.0 mm 0.00 in0.0 mm 0.00 in0.0 mm
01:25 PM 58.6°F14.8°C 31.5°F-0.3°C 36% Calm Calm 8.8 mph14.2 kmh 30.07 in1018.3 mb 0.00 in0.0 mm 0.00 in0.0 mm 0.00 in0.0 mm
01:30 PM 58.2°F14.6°C 32.5°F0.3°C 38% Calm Calm 7.0 mph11.3 kmh 30.06 in1017.9 mb 0.00 in0.0 mm 0.00 in0.0 mm 0.00 in0.0 mm
01:35 PM 58.2°F14.6°C 32.5°F0.3°C 38% Calm Calm 3.0 mph4.8 kmh 30.07 in1018.3 mb 0.00 in0.0 mm 0.00 in0.0 mm 0.00 in0.0 mm
01:40 PM 58.5°F14.7°C 33.4°F0.8°C 39% Calm Calm 1.0 mph1.6 kmh 30.07 in1018.3 mb 0.00 in0.0 mm 0.00 in0.0 mm 0.00 in0.0 mm
01:45 PM 58.1°F14.5°C 31.1°F-0.5°C 36% Calm Calm -- 30.07 in1018.3 mb 0.00 in0.0 mm 0.00 in0.0 mm 0.00 in0.0 mm
01:50 PM 58.0°F14.4°C 31.7°F-0.2°C 37% Calm Calm -- 30.07 in1018.3 mb 0.00 in0.0 mm 0.00 in0.0 mm 0.00 in0.0 mm
01:55 PM 58.0°F14.4°C 31.0°F-0.6°C 36% Calm Calm -- 30.07 in1018.3 mb 0.00 in0.0 mm 0.00 in0.0 mm 0.00 in0.0 mm
02:00 PM 58.0°F14.4°C 33.8°F1.0°C 40% Calm Calm -- 30.07 in1018.3 mb 0.00 in0.0 mm 0.00 in0.0 mm 0.00 in0.0 mm
02:05 PM 58.3°F14.6°C 31.2°F-0.4°C 36% Calm Calm -- 30.07 in1018.3 mb 0.00 in0.0 mm 0.00 in0.0 mm 0.00 in0.0 mm
02:10 PM 58.7°F14.8°C 33.0°F0.6°C 38% Calm Calm -- 30.07 in1018.3 mb 0.00 in0.0 mm 0.00 in0.0 mm 0.00 in0.0 mm
02:15 PM 59.3°F15.2°C 33.7°F0.9°C 38% Calm Calm -- 30.07 in1018.3 mb 0.00 in0.0 mm 0.00 in0.0 mm 0.00 in0.0 mm
02:20 PM 59.9°F15.5°C 33.4°F0.8°C 37% Calm Calm -- 30.06 in1017.9 mb 0.00 in0.0 mm 0.00 in0.0 mm 0.00 in0.0 mm
02:25 PM 59.9°F15.5°C 32.7°F0.4°C 36% Calm Calm -- 30.06 in1017.9 mb 0.00 in0.0 mm 0.00 in0.0 mm 0.00 in0.0 mm
02:30 PM 59.9°F15.5°C 32.2°F0.1°C 35% Calm Calm -- 30.06 in1017.9 mb 0.00 in0.0 mm 0.00 in0.0 mm 0.00 in0.0 mm
02:35 PM 60.2°F15.7°C 35.8°F2.1°C 40% Calm Calm -- 30.07 in1018.3 mb 0.00 in0.0 mm 0.00 in0.0 mm 0.00 in0.0 mm
02:41 PM 60.8°F16.0°C 32.8°F0.4°C 35% Calm Calm -- 30.06 in1017.9 mb 0.00 in0.0 mm 0.00 in0.0 mm 0.00 in0.0 mm
02:46 PM 60.8°F16.0°C 32.8°F0.4°C 35% Calm Calm -- 30.06 in1017.9 mb 0.00 in0.0 mm 0.00 in0.0 mm 0.00 in0.0 mm
02:51 PM 60.8°F16.0°C 32.0°F0.0°C 34% Calm Calm -- 30.06 in1017.9 mb 0.00 in0.0 mm 0.00 in0.0 mm 0.00 in0.0 mm
02:56 PM 60.7°F15.9°C 32.7°F0.4°C 35% Calm Calm -- 30.06 in1017.9 mb 0.00 in0.0 mm 0.00 in0.0 mm 0.00 in0.0 mm
03:01 PM 60.9°F16.1°C 30.8°F-0.7°C 32% Calm Calm -- 30.06 in1017.9 mb 0.00 in0.0 mm 0.00 in0.0 mm 0.00 in0.0 mm
03:06 PM 60.6°F15.9°C 31.9°F-0.1°C 34% Calm Calm -- 30.06 in1017.9 mb 0.00 in0.0 mm 0.00 in0.0 mm 0.00 in0.0 mm
03:11 PM 60.4°F15.8°C 30.9°F-0.6°C 33% Calm Calm -- 30.06 in1017.9 mb 0.00 in0.0 mm 0.00 in0.0 mm 0.00 in0.0 mm
03:16 PM 60.6°F15.9°C 34.7°F1.5°C 38% Calm Calm -- 30.06 in1017.9 mb 0.00 in0.0 mm 0.00 in0.0 mm 0.00 in0.0 mm
03:21 PM 60.8°F16.0°C 34.2°F1.2°C 37% Calm Calm -- 30.06 in1017.9 mb 0.00 in0.0 mm 0.00 in0.0 mm 0.00 in0.0 mm
03:26 PM 60.9°F16.1°C 29.8°F-1.2°C 31% Calm Calm -- 30.06 in1017.9 mb 0.00 in0.0 mm 0.00 in0.0 mm 0.00 in0.0 mm
03:31 PM 61.2°F16.2°C 29.3°F-1.5°C 30% Calm Calm -- 30.06 in1017.9 mb 0.00 in0.0 mm 0.00 in0.0 mm 0.00 in0.0 mm
03:36 PM 61.6°F16.4°C 29.6°F-1.3°C 30% Calm Calm -- 30.06 in1017.9 mb 0.00 in0.0 mm 0.00 in0.0 mm 0.00 in0.0 mm
03:41 PM 61.3°F16.3°C 27.7°F-2.4°C 28% Calm Calm -- 30.06 in1017.9 mb 0.00 in0.0 mm 0.00 in0.0 mm 0.00 in0.0 mm
03:46 PM 60.9°F16.1°C 28.2°F-2.1°C 29% Calm Calm -- 30.06 in1017.9 mb 0.00 in0.0 mm 0.00 in0.0 mm 0.00 in0.0 mm
03:51 PM 61.1°F16.2°C 26.7°F-2.9°C 27% Calm Calm -- 30.06 in1017.9 mb 0.00 in0.0 mm 0.00 in0.0 mm 0.00 in0.0 mm
03:56 PM 61.4°F16.3°C 28.6°F-1.9°C 29% Calm Calm -- 30.06 in1017.9 mb 0.00 in0.0 mm 0.00 in0.0 mm 0.00 in0.0 mm
04:01 PM 62.0°F16.7°C 30.8°F-0.7°C 31% Calm Calm -- 30.06 in1017.9 mb 0.00 in0.0 mm 0.00 in0.0 mm 0.00 in0.0 mm
04:06 PM 61.5°F16.4°C 27.0°F-2.8°C 27% Calm Calm -- 30.05 in1017.6 mb 0.00 in0.0 mm 0.00 in0.0 mm 0.00 in0.0 mm
04:11 PM 61.3°F16.3°C 29.6°F-1.3°C 30% Calm Calm -- 30.06 in1017.9 mb 0.00 in0.0 mm 0.00 in0.0 mm 0.00 in0.0 mm
04:16 PM 61.9°F16.6°C 31.5°F-0.3°C 32% Calm Calm -- 30.05 in1017.6 mb 0.00 in0.0 mm 0.00 in0.0 mm 0.00 in0.0 mm
04:21 PM 62.6°F17.0°C 29.7°F-1.3°C 29% Calm Calm -- 30.05 in1017.6 mb 0.00 in0.0 mm 0.00 in0.0 mm 0.00 in0.0 mm
04:26 PM 62.5°F16.9°C 30.4°F-0.9°C 30% Calm Calm -- 30.05 in1017.6 mb 0.00 in0.0 mm 0.00 in0.0 mm 0.00 in0.0 mm
04:31 PM 62.3°F16.8°C 30.4°F-0.9°C 30% Calm Calm -- 30.05 in1017.6 mb 0.00 in0.0 mm 0.00 in0.0 mm 0.00 in0.0 mm
04:36 PM 62.5°F16.9°C 30.4°F-0.9°C 30% Calm Calm -- 30.05 in1017.6 mb 0.00 in0.0 mm 0.00 in0.0 mm 0.00 in0.0 mm
04:41 PM 61.6°F16.4°C 28.8°F-1.8°C 29% Calm Calm -- 30.05 in1017.6 mb 0.00 in0.0 mm 0.00 in0.0 mm 0.00 in0.0 mm
04:46 PM 61.6°F16.4°C 30.4°F-0.9°C 31% Calm Calm -- 30.05 in1017.6 mb 0.00 in0.0 mm 0.00 in0.0 mm 0.00 in0.0 mm
04:51 PM 61.9°F16.6°C 34.4°F1.3°C 36% Calm Calm -- 30.05 in1017.6 mb 0.00 in0.0 mm 0.00 in0.0 mm 0.00 in0.0 mm
04:56 PM 61.7°F16.5°C 29.7°F-1.3°C 30% Calm Calm -- 30.05 in1017.6 mb 0.00 in0.0 mm 0.00 in0.0 mm 0.00 in0.0 mm
05:01 PM 61.6°F16.4°C 31.2°F-0.4°C 32% Calm Calm -- 30.05 in1017.6 mb 0.00 in0.0 mm 0.00 in0.0 mm 0.00 in0.0 mm
05:06 PM 61.5°F16.4°C 29.6°F-1.3°C 30% Calm Calm -- 30.05 in1017.6 mb 0.00 in0.0 mm 0.00 in0.0 mm 0.00 in0.0 mm
05:11 PM 61.4°F16.3°C 30.3°F-0.9°C 31% Calm Calm -- 30.05 in1017.6 mb 0.00 in0.0 mm 0.00 in0.0 mm 0.00 in0.0 mm
05:16 PM 61.3°F16.3°C 30.2°F-1.0°C 31% Calm Calm -- 30.05 in1017.6 mb 0.00 in0.0 mm 0.00 in0.0 mm 0.00 in0.0 mm
05:21 PM 61.7°F16.5°C 28.1°F-2.2°C 28% Calm Calm -- 30.05 in1017.6 mb 0.00 in0.0 mm 0.00 in0.0 mm 0.00 in0.0 mm
05:26 PM 61.6°F16.4°C 27.1°F-2.7°C 27% Calm Calm -- 30.05 in1017.6 mb 0.00 in0.0 mm 0.00 in0.0 mm 0.00 in0.0 mm
05:31 PM 61.5°F16.4°C 27.9°F-2.3°C 28% Calm Calm -- 30.05 in1017.6 mb 0.00 in0.0 mm 0.00 in0.0 mm 0.00 in0.0 mm
05:36 PM 61.3°F16.3°C 24.1°F-4.4°C 24% Calm Calm -- 30.05 in1017.6 mb 0.00 in0.0 mm 0.00 in0.0 mm 0.00 in0.0 mm
05:41 PM 61.0°F16.1°C 26.6°F-3.0°C 27% 1.5 mph W2.4 kmh W 18.8 mph30.3 kmh 30.05 in1017.6 mb 0.00 in0.0 mm 0.00 in0.0 mm 0.00 in0.0 mm
05:46 PM 61.0°F16.1°C 29.9°F-1.2°C 31% 1.7 mph SW2.7 kmh SW 18.8 mph30.3 kmh 30.05 in1017.6 mb 0.00 in0.0 mm 0.00 in0.0 mm 0.00 in0.0 mm
05:51 PM 61.2°F16.2°C 25.9°F-3.4°C 26% 2.1 mph NW3.4 kmh NW 13.0 mph20.9 kmh 30.05 in1017.6 mb 0.00 in0.0 mm 0.00 in0.0 mm 0.00 in0.0 mm
05:56 PM 61.2°F16.2°C 28.5°F-1.9°C 29% 2.2 mph WNW3.5 kmh WNW 13.0 mph20.9 kmh 30.05 in1017.6 mb 0.00 in0.0 mm 0.00 in0.0 mm 0.00 in0.0 mm
06:01 PM 60.6°F15.9°C 22.5°F-5.3°C 23% 2.9 mph NW4.7 kmh NW 11.3 mph18.2 kmh 30.05 in1017.6 mb 0.00 in0.0 mm 0.00 in0.0 mm 0.00 in0.0 mm
06:06 PM 60.5°F15.8°C 26.2°F-3.2°C 27% 2.0 mph WSW3.2 kmh WSW 11.3 mph18.2 kmh 30.05 in1017.6 mb 0.00 in0.0 mm 0.00 in0.0 mm 0.00 in0.0 mm
06:11 PM 60.4°F15.8°C 26.1°F-3.3°C 27% 3.7 mph N6.0 kmh N 10.0 mph16.1 kmh 30.06 in1017.9 mb 0.00 in0.0 mm 0.00 in0.0 mm 0.00 in0.0 mm
06:16 PM 59.8°F15.4°C 25.6°F-3.6°C 27% 1.6 mph SW2.6 kmh SW 18.8 mph30.3 kmh 30.05 in1017.6 mb 0.00 in0.0 mm 0.00 in0.0 mm 0.00 in0.0 mm
06:21 PM 59.7°F15.4°C 26.3°F-3.2°C 28% 1.8 mph WSW2.9 kmh WSW 18.8 mph30.3 kmh 30.06 in1017.9 mb 0.00 in0.0 mm 0.00 in0.0 mm 0.00 in0.0 mm
06:26 PM 59.8°F15.4°C 27.3°F-2.6°C 29% 3.3 mph WSW5.3 kmh WSW 13.0 mph20.9 kmh 30.06 in1017.9 mb 0.00 in0.0 mm 0.00 in0.0 mm 0.00 in0.0 mm
06:31 PM 59.5°F15.3°C 23.5°F-4.7°C 25% 2.2 mph WSW3.5 kmh WSW 13.0 mph20.9 kmh 30.06 in1017.9 mb 0.00 in0.0 mm 0.00 in0.0 mm 0.00 in0.0 mm
06:37 PM 59.3°F15.2°C 24.2°F-4.3°C 26% 2.0 mph SW3.2 kmh SW 7.0 mph11.3 kmh 30.06 in1017.9 mb 0.00 in0.0 mm 0.00 in0.0 mm 0.00 in0.0 mm
06:42 PM 59.2°F15.1°C 25.0°F-3.9°C 27% 1.6 mph W2.6 kmh W 7.5 mph12.1 kmh 30.06 in1017.9 mb 0.00 in0.0 mm 0.00 in0.0 mm 0.00 in0.0 mm
06:47 PM 59.1°F15.1°C 25.8°F-3.4°C 28% 1.4 mph W2.3 kmh W 7.5 mph12.1 kmh 30.06 in1017.9 mb 0.00 in0.0 mm 0.00 in0.0 mm 0.00 in0.0 mm
06:52 PM 59.0°F15.0°C 26.8°F-2.9°C 29% 2.0 mph WSW3.2 kmh WSW 6.3 mph10.1 kmh 30.06 in1017.9 mb 0.00 in0.0 mm 0.00 in0.0 mm 0.00 in0.0 mm
06:57 PM 58.9°F14.9°C 23.9°F-4.5°C 26% 3.1 mph SW5.0 kmh SW 6.3 mph10.1 kmh 30.06 in1017.9 mb 0.00 in0.0 mm 0.00 in0.0 mm 0.00 in0.0 mm
07:02 PM 58.5°F14.7°C 24.4°F-4.2°C 27% 1.5 mph WSW2.4 kmh WSW 6.3 mph10.1 kmh 30.06 in1017.9 mb 0.00 in0.0 mm 0.00 in0.0 mm 0.00 in0.0 mm
07:07 PM 58.1°F14.5°C 23.2°F-4.9°C 26% 2.7 mph NW4.3 kmh NW 10.0 mph16.1 kmh 30.06 in1017.9 mb 0.00 in0.0 mm 0.00 in0.0 mm 0.00 in0.0 mm
07:12 PM 57.9°F14.4°C 23.9°F-4.5°C 27% 1.3 mph SSE2.1 kmh SSE 10.0 mph16.1 kmh 30.06 in1017.9 mb 0.00 in0.0 mm 0.00 in0.0 mm 0.00 in0.0 mm
07:17 PM 57.5°F14.2°C 25.5°F-3.6°C 29% 2.4 mph NNW3.9 kmh NNW 7.0 mph11.3 kmh 30.06 in1017.9 mb 0.00 in0.0 mm 0.00 in0.0 mm 0.00 in0.0 mm
07:22 PM 57.1°F13.9°C 26.5°F-3.1°C 31% 1.3 mph W2.1 kmh W 7.0 mph11.3 kmh 30.06 in1017.9 mb 0.00 in0.0 mm 0.00 in0.0 mm 0.00 in0.0 mm
07:27 PM 56.8°F13.8°C 24.7°F-4.1°C 29% 1.4 mph W2.3 kmh W 5.0 mph8.0 kmh 30.06 in1017.9 mb 0.00 in0.0 mm 0.00 in0.0 mm 0.00 in0.0 mm
07:32 PM 56.5°F13.6°C 26.0°F-3.3°C 31% Calm Calm 5.0 mph8.0 kmh 30.06 in1017.9 mb 0.00 in0.0 mm 0.00 in0.0 mm 0.00 in0.0 mm
07:37 PM 56.1°F13.4°C 27.2°F-2.7°C 33% 1.3 mph W2.1 kmh W 2.0 mph3.2 kmh 30.06 in1017.9 mb 0.00 in0.0 mm 0.00 in0.0 mm 0.00 in0.0 mm
07:42 PM 55.8°F13.2°C 26.9°F-2.8°C 33% 1.3 mph WSW2.1 kmh WSW 2.0 mph3.2 kmh 30.06 in1017.9 mb 0.00 in0.0 mm 0.00 in0.0 mm 0.00 in0.0 mm
07:47 PM 55.5°F13.1°C 26.6°F-3.0°C 33% 1.3 mph WSW2.1 kmh WSW 2.5 mph4.0 kmh 30.06 in1017.9 mb 0.00 in0.0 mm 0.00 in0.0 mm 0.00 in0.0 mm
07:52 PM 55.3°F12.9°C 27.2°F-2.7°C 34% 1.4 mph E2.3 kmh E 2.5 mph4.0 kmh 30.07 in1018.3 mb 0.00 in0.0 mm 0.00 in0.0 mm 0.00 in0.0 mm
07:57 PM 55.1°F12.8°C 27.7°F-2.4°C 35% Calm Calm 4.0 mph6.4 kmh 30.07 in1018.3 mb 0.00 in0.0 mm 0.00 in0.0 mm 0.00 in0.0 mm
08:02 PM 54.8°F12.7°C 26.0°F-3.3°C 33% Calm Calm 4.0 mph6.4 kmh 30.07 in1018.3 mb 0.00 in0.0 mm 0.00 in0.0 mm 0.00 in0.0 mm
08:07 PM 54.4°F12.4°C 28.4°F-2.0°C 37% 1.9 mph NE3.1 kmh NE 4.0 mph6.4 kmh 30.07 in1018.3 mb 0.00 in0.0 mm 0.00 in0.0 mm 0.00 in0.0 mm
08:12 PM 54.1°F12.3°C 28.2°F-2.1°C 37% 1.4 mph NE2.3 kmh NE 3.8 mph6.1 kmh 30.07 in1018.3 mb 0.00 in0.0 mm 0.00 in0.0 mm 0.00 in0.0 mm
08:17 PM 53.6°F12.0°C 28.4°F-2.0°C 38% Calm Calm 3.0 mph4.8 kmh 30.07 in1018.3 mb 0.00 in0.0 mm 0.00 in0.0 mm 0.00 in0.0 mm
08:22 PM 53.4°F11.9°C 28.2°F-2.1°C 38% Calm Calm 3.0 mph4.8 kmh 30.07 in1018.3 mb 0.00 in0.0 mm 0.00 in0.0 mm 0.00 in0.0 mm
08:27 PM 53.0°F11.7°C 28.5°F-1.9°C 39% 1.3 mph W2.1 kmh W 2.0 mph3.2 kmh 30.07 in1018.3 mb 0.00 in0.0 mm 0.00 in0.0 mm 0.00 in0.0 mm
08:32 PM 52.4°F11.3°C 28.6°F-1.9°C 40% Calm Calm 1.3 mph2.1 kmh 30.07 in1018.3 mb 0.00 in0.0 mm 0.00 in0.0 mm 0.00 in0.0 mm
08:37 PM 52.1°F11.2°C 27.7°F-2.4°C 39% Calm Calm 1.3 mph2.1 kmh 30.08 in1018.6 mb 0.00 in0.0 mm 0.00 in0.0 mm 0.00 in0.0 mm
08:42 PM 51.7°F10.9°C 28.0°F-2.2°C 40% Calm Calm 1.3 mph2.1 kmh 30.08 in1018.6 mb 0.00 in0.0 mm 0.00 in0.0 mm 0.00 in0.0 mm
08:47 PM 51.4°F10.8°C 28.3°F-2.1°C 41% Calm Calm 1.3 mph2.1 kmh 30.08 in1018.6 mb 0.00 in0.0 mm 0.00 in0.0 mm 0.00 in0.0 mm
08:52 PM 51.2°F10.7°C 28.1°F-2.2°C 41% 1.3 mph NNE2.1 kmh NNE 1.3 mph2.1 kmh 30.08 in1018.6 mb 0.00 in0.0 mm 0.00 in0.0 mm 0.00 in0.0 mm
08:57 PM 51.0°F10.6°C 27.9°F-2.3°C 41% Calm Calm 1.3 mph2.1 kmh 30.09 in1019.0 mb 0.00 in0.0 mm 0.00 in0.0 mm 0.00 in0.0 mm
09:02 PM 50.6°F10.3°C 28.8°F-1.8°C 43% Calm Calm 1.0 mph1.6 kmh 30.09 in1019.0 mb 0.00 in0.0 mm 0.00 in0.0 mm 0.00 in0.0 mm
09:07 PM 50.3°F10.2°C 29.7°F-1.3°C 45% 1.3 mph NE2.1 kmh NE 1.3 mph2.1 kmh 30.09 in1019.0 mb 0.00 in0.0 mm 0.00 in0.0 mm 0.00 in0.0 mm
09:12 PM 49.9°F9.9°C 32.0°F0.0°C 50% 1.3 mph NE2.1 kmh NE 1.3 mph2.1 kmh 30.09 in1019.0 mb 0.00 in0.0 mm 0.00 in0.0 mm 0.00 in0.0 mm
09:17 PM 48.8°F9.3°C 31.9°F-0.1°C 52% 1.3 mph NE2.1 kmh NE 1.3 mph2.1 kmh 30.10 in1019.3 mb 0.00 in0.0 mm 0.00 in0.0 mm 0.00 in0.0 mm
09:22 PM 48.0°F8.9°C 32.2°F0.1°C 54% Calm Calm 1.3 mph2.1 kmh 30.10 in1019.3 mb 0.00 in0.0 mm 0.00 in0.0 mm 0.00 in0.0 mm
09:28 PM 47.2°F8.4°C 32.3°F0.2°C 56% 1.3 mph NE2.1 kmh NE 2.5 mph4.0 kmh 30.10 in1019.3 mb 0.00 in0.0 mm 0.00 in0.0 mm 0.00 in0.0 mm
09:33 PM 46.6°F8.1°C 32.2°F0.1°C 57% Calm Calm 2.5 mph4.0 kmh 30.11 in1019.6 mb 0.00 in0.0 mm 0.00 in0.0 mm 0.00 in0.0 mm
09:38 PM 45.9°F7.7°C 32.9°F0.5°C 60% Calm Calm 1.3 mph2.1 kmh 30.11 in1019.6 mb 0.00 in0.0 mm 0.00 in0.0 mm 0.00 in0.0 mm
09:43 PM 45.5°F7.5°C 32.9°F0.5°C 61% Calm Calm 1.3 mph2.1 kmh 30.12 in1020.0 mb 0.00 in0.0 mm 0.00 in0.0 mm 0.00 in0.0 mm
09:48 PM 45.2°F7.3°C 33.0°F0.6°C 62% Calm Calm 1.3 mph2.1 kmh 30.11 in1019.6 mb 0.00 in0.0 mm 0.00 in0.0 mm 0.00 in0.0 mm
09:53 PM 44.8°F7.1°C 33.4°F0.8°C 64% Calm Calm 1.0 mph1.6 kmh 30.12 in1020.0 mb 0.00 in0.0 mm 0.00 in0.0 mm 0.00 in0.0 mm
09:58 PM 44.4°F6.9°C 33.4°F0.8°C 65% 1.3 mph NE2.1 kmh NE 1.3 mph2.1 kmh 30.12 in1020.0 mb 0.00 in0.0 mm 0.00 in0.0 mm 0.00 in0.0 mm
10:03 PM 44.1°F6.7°C 32.8°F0.4°C 64% Calm Calm 1.3 mph2.1 kmh 30.12 in1020.0 mb 0.00 in0.0 mm 0.00 in0.0 mm 0.00 in0.0 mm
10:08 PM 43.9°F6.6°C 33.4°F0.8°C 66% Calm Calm 1.3 mph2.1 kmh 30.12 in1020.0 mb 0.00 in0.0 mm 0.00 in0.0 mm 0.00 in0.0 mm
10:13 PM 43.6°F6.4°C 33.4°F0.8°C 67% Calm Calm 1.3 mph2.1 kmh 30.13 in1020.3 mb 0.00 in0.0 mm 0.00 in0.0 mm 0.00 in0.0 mm
10:18 PM 43.1°F6.2°C 32.5°F0.3°C 66% 1.3 mph NE2.1 kmh NE 1.3 mph2.1 kmh 30.13 in1020.3 mb 0.00 in0.0 mm 0.00 in0.0 mm 0.00 in0.0 mm
10:23 PM 42.7°F5.9°C 31.7°F-0.2°C 65% Calm Calm 1.3 mph2.1 kmh 30.13 in1020.3 mb 0.00 in0.0 mm 0.00 in0.0 mm 0.00 in0.0 mm
10:28 PM 42.5°F5.8°C 32.0°F0.0°C 66% Calm Calm 1.3 mph2.1 kmh 30.13 in1020.3 mb 0.00 in0.0 mm 0.00 in0.0 mm 0.00 in0.0 mm
10:33 PM 42.2°F5.7°C 32.5°F0.3°C 68% Calm Calm 1.0 mph1.6 kmh 30.13 in1020.3 mb 0.00 in0.0 mm 0.00 in0.0 mm 0.00 in0.0 mm
10:38 PM 41.9°F5.5°C 31.8°F-0.1°C 67% Calm Calm -- 30.13 in1020.3 mb 0.00 in0.0 mm 0.00 in0.0 mm 0.00 in0.0 mm
10:43 PM 41.7°F5.4°C 31.6°F-0.2°C 67% Calm Calm -- 30.13 in1020.3 mb 0.00 in0.0 mm 0.00 in0.0 mm 0.00 in0.0 mm
10:48 PM 41.5°F5.3°C 32.2°F0.1°C 69% Calm Calm -- 30.13 in1020.3 mb 0.00 in0.0 mm 0.00 in0.0 mm 0.00 in0.0 mm
10:53 PM 41.3°F5.2°C 31.6°F-0.2°C 68% Calm Calm -- 30.13 in1020.3 mb 0.00 in0.0 mm 0.00 in0.0 mm 0.00 in0.0 mm
10:58 PM 41.1°F5.1°C 31.4°F-0.3°C 68% Calm Calm -- 30.13 in1020.3 mb 0.00 in0.0 mm 0.00 in0.0 mm 0.00 in0.0 mm
11:03 PM 41.0°F5.0°C 31.3°F-0.4°C 68% Calm Calm 1.3 mph2.1 kmh 30.13 in1020.3 mb 0.00 in0.0 mm 0.00 in0.0 mm 0.00 in0.0 mm
11:08 PM 41.1°F5.1°C 32.1°F0.1°C 70% 1.3 mph NE2.1 kmh NE 1.3 mph2.1 kmh 30.14 in1020.7 mb 0.00 in0.0 mm 0.00 in0.0 mm 0.00 in0.0 mm
11:13 PM 41.0°F5.0°C 32.0°F0.0°C 70% Calm Calm 1.3 mph2.1 kmh 30.14 in1020.7 mb 0.00 in0.0 mm 0.00 in0.0 mm 0.00 in0.0 mm
11:18 PM 40.9°F4.9°C 31.9°F-0.1°C 70% 1.3 mph NE2.1 kmh NE 1.3 mph2.1 kmh 30.13 in1020.3 mb 0.00 in0.0 mm 0.00 in0.0 mm 0.00 in0.0 mm
11:23 PM 40.8°F4.9°C 31.9°F-0.1°C 70% Calm Calm 1.3 mph2.1 kmh 30.13 in1020.3 mb 0.00 in0.0 mm 0.00 in0.0 mm 0.00 in0.0 mm
11:28 PM 40.7°F4.8°C 32.4°F0.2°C 72% Calm Calm 1.3 mph2.1 kmh 30.14 in1020.7 mb 0.00 in0.0 mm 0.00 in0.0 mm 0.00 in0.0 mm
11:33 PM 40.4°F4.7°C 31.8°F-0.1°C 71% Calm Calm 1.3 mph2.1 kmh 30.14 in1020.7 mb 0.00 in0.0 mm 0.00 in0.0 mm 0.00 in0.0 mm
11:38 PM 40.4°F4.7°C 32.5°F0.3°C 73% Calm Calm 1.0 mph1.6 kmh 30.13 in1020.3 mb 0.00 in0.0 mm 0.00 in0.0 mm 0.00 in0.0 mm
11:43 PM 40.4°F4.7°C 32.2°F0.1°C 72% Calm Calm 1.0 mph1.6 kmh 30.13 in1020.3 mb 0.00 in0.0 mm 0.00 in0.0 mm 0.00 in0.0 mm
11:48 PM 40.3°F4.6°C 31.7°F-0.2°C 71% 1.3 mph NE2.1 kmh NE 1.3 mph2.1 kmh 30.13 in1020.3 mb 0.00 in0.0 mm 0.00 in0.0 mm 0.00 in0.0 mm
11:53 PM 40.2°F4.6°C 32.3°F0.2°C 73% Calm Calm 1.3 mph2.1 kmh 30.13 in1020.3 mb 0.00 in0.0 mm 0.00 in0.0 mm 0.00 in0.0 mm
11:58 PM 40.2°F4.6°C 32.0°F0.0°C 72% Calm Calm 1.3 mph2.1 kmh 30.13 in1020.3 mb 0.00 in0.0 mm 0.00 in0.0 mm 0.00 in0.0 mm